To NAV CANADA Home Page Login to a new session Search on AWWS site Disclaimer Vers la page française équivalente Tips FAQ What's new on the site To the Forecasts and Observations / NOTAM section To "File a Flight Plan" website Publications and other links Update of the User's profile FIC Telephone Numbers My Weather Data Folder Route Weather Data Regional Weather Data Local Weather Data To the Forecasts and Observations / NOTAM section
Request Generated 05/28/2022 at 23:40:56 UTC . Weather information available at that time is displayed.

METAR/TAF

MONTREAL/ST-HUBERT/QC    (show WxCam)

METAR CYHU 282300Z AUTO 30007KT 280V340 9SM CLR 21/09 A2977 RMK SLP082 DENSITY ALT 1000FT=
METAR CYHU 282200Z AUTO 31009G15KT 9SM CLR 20/09 A2975 RMK SLP078 DENSITY ALT 900FT=
METAR CYHU 282100Z AUTO 35009KT 300V360 9SM FEW048 20/09 A2975 RMK SLP075 DENSITY ALT 900FT=

TAF CYHU 282340Z 2900/2924 30008KT P6SM SCT040
BECMG 2900/2902 26008KT
FM290200 26008KT P6SM FEW060 BKN220
FM291200 24010KT P6SM FEW040 SCT160
BECMG 2914/2916 24010G20KT
BECMG 2922/2924 24008KT
RMK FCST BASED ON AUTO OBS. NXT FCST BY 290600Z
Your time UTC time
Weather data provided by Environment Canada and NAV CANADA